Time;durP1;ratioP1;P1;durP2;ratioP2;P2;SDS_P1;SDS_P2;PMS_P1;PMS_P2;Temp;Humidity;BMP_temperature;BMP_pressure;BME280_temperature;BME280_humidity;BME280_pressure;Samples;Min_cycle;Max_cycle;Signal;HPM_P1;HPM_P2
2022/04/18 00:01:50;;;;;;;9.43;7.20;;;;;;;4.69;57.99;101607.47;5035076;28;20475;-23
2022/04/18 00:04:16;;;;;;;8.95;7.53;;;;;;;4.64;57.72;101601.25;5041740;28;20100;-23
2022/04/18 00:06:41;;;;;;;9.27;7.88;;;;;;;4.61;57.86;101607.25;5045203;28;20421;-23
2022/04/18 00:09:07;;;;;;;7.80;7.00;;;;;;;4.57;57.65;101600.16;5045035;28;20490;-23
2022/04/18 00:11:33;;;;;;;10.52;7.53;;;;;;;4.55;58.10;101601.84;5041845;28;20487;-23
2022/04/18 00:13:58;;;;;;;9.43;8.25;;;;;;;4.49;58.18;101598.22;5042803;28;20080;-23
2022/04/18 00:16:24;;;;;;;10.70;7.45;;;;;;;4.47;58.29;101605.09;5038535;28;20033;-23
2022/04/18 00:18:50;;;;;;;9.98;7.85;;;;;;;4.43;57.51;101598.00;5040447;28;20387;-23
2022/04/18 00:21:15;;;;;;;10.73;7.97;;;;;;;4.40;57.99;101603.13;5029944;28;20120;-23
2022/04/18 00:23:42;;;;;;;8.88;7.47;;;;;;;4.36;57.78;101596.03;5027348;28;20033;-23
2022/04/18 00:26:08;;;;;;;8.40;7.22;;;;;;;4.33;57.91;101594.22;5027441;28;20100;-23
2022/04/18 00:28:33;;;;;;;9.10;7.70;;;;;;;4.31;58.16;101593.31;5026819;28;20510;-23
2022/04/18 00:30:59;;;;;;;9.32;7.22;;;;;;;4.29;58.12;101599.28;5028717;28;20029;-23
2022/04/18 00:33:25;;;;;;;10.13;7.88;;;;;;;4.26;58.19;101596.59;5028113;28;20029;-23
2022/04/18 00:35:51;;;;;;;10.10;8.32;;;;;;;4.22;58.12;101601.72;5029424;28;20096;-23
2022/04/18 00:38:17;;;;;;;11.00;8.00;;;;;;;4.17;58.30;101600.66;5033895;28;20018;-23
2022/04/18 00:40:42;;;;;;;8.73;7.53;;;;;;;4.17;58.22;101605.03;5031967;28;20537;-23
2022/04/18 00:43:08;;;;;;;10.20;7.70;;;;;;;4.13;58.24;101604.03;5029785;28;20021;-23
2022/04/18 00:45:34;;;;;;;8.25;7.25;;;;;;;4.11;58.41;101600.50;5033563;28;20040;-23
2022/04/18 00:47:59;;;;;;;11.07;8.20;;;;;;;4.08;58.51;101595.16;5027377;28;20034;-23
2022/04/18 00:50:26;;;;;;;8.65;7.47;;;;;;;4.02;58.58;101590.63;5032820;28;20052;-23
2022/04/18 00:52:53;;;;;;;9.30;7.70;;;;;;;4.02;58.59;101592.34;5037824;28;20437;-23
2022/04/18 00:55:19;;;;;;;10.18;7.95;;;;;;;3.98;58.92;101593.97;5043632;28;20112;-23
2022/04/18 00:57:45;;;;;;;9.48;7.95;;;;;;;3.95;58.46;101588.66;5039238;28;20168;-23
2022/04/18 01:00:11;;;;;;;11.57;8.27;;;;;;;3.92;58.52;101584.22;5044346;28;20109;-23
2022/04/18 01:02:36;;;;;;;9.65;7.82;;;;;;;3.89;58.30;101586.72;5044736;28;20040;-23
2022/04/18 01:05:02;;;;;;;12.93;8.15;;;;;;;3.87;58.55;101584.91;5041351;28;20032;-23
2022/04/18 01:07:27;;;;;;;9.73;8.30;;;;;;;3.84;58.58;101577.88;5041201;28;20029;-23
2022/04/18 01:09:53;;;;;;;9.13;7.50;;;;;;;3.79;58.64;101572.47;5035040;28;20021;-23
2022/04/18 01:12:18;;;;;;;9.55;7.93;;;;;;;3.77;58.45;101570.66;5036932;28;20104;-24
2022/04/18 01:14:47;;;;;;;8.32;7.32;;;;;;;3.73;58.71;101561.81;5041269;28;20051;-23
2022/04/18 01:17:13;;;;;;;8.35;7.43;;;;;;;3.71;58.71;101560.91;5047419;28;20037;-23
2022/04/18 01:19:39;;;;;;;8.63;6.95;;;;;;;3.69;58.50;101566.06;5040999;28;20384;-23
2022/04/18 01:22:05;;;;;;;8.57;7.13;;;;;;;3.64;59.20;101557.22;5041944;28;20025;-23
2022/04/18 01:30:02;;;;;;;9.13;7.38;;;;;;;3.54;58.91;101544.69;5033091;28;20135;-23
2022/04/18 01:32:28;;;;;;;9.20;7.35;;;;;;;3.53;59.27;101542.91;5030048;28;20415;-23
2022/04/18 01:34:53;;;;;;;10.32;7.72;;;;;;;3.49;59.29;101547.13;5029612;28;20017;-23
2022/04/18 01:37:19;;;;;;;8.93;7.43;;;;;;;3.45;58.98;101548.75;5036563;28;20025;-23
2022/04/18 01:39:44;;;;;;;9.93;8.00;;;;;;;3.41;59.27;101549.47;5026494;28;20033;-23
2022/04/18 01:42:09;;;;;;;9.10;7.40;;;;;;;3.38;59.30;101544.16;5042223;28;20035;-23
2022/04/18 01:44:35;;;;;;;9.65;6.95;;;;;;;3.37;59.28;101536.28;5038937;28;20549;-23
2022/04/18 01:47:00;;;;;;;9.18;7.65;;;;;;;3.33;59.41;101532.66;5040412;28;20037;-23
2022/04/18 01:49:26;;;;;;;9.55;7.97;;;;;;;3.32;59.09;101533.50;5035197;28;20135;-23
2022/04/18 01:51:51;;;;;;;8.57;7.50;;;;;;;3.28;59.52;101536.84;5033685;28;20021;-23
2022/04/18 01:54:17;;;;;;;10.65;7.32;;;;;;;3.27;59.22;101535.06;5044115;28;20081;-23
2022/04/18 01:56:43;;;;;;;9.18;7.30;;;;;;;3.23;59.45;101530.59;5041018;28;20017;-23
2022/04/18 01:59:08;;;;;;;9.52;7.50;;;;;;;3.20;59.15;101533.94;5037686;28;20028;-23
2022/04/18 02:01:34;;;;;;;8.65;7.35;;;;;;;3.16;59.07;101530.34;5035257;28;20036;-23
2022/04/18 02:03:59;;;;;;;8.40;7.28;;;;;;;3.13;59.60;101531.97;5029805;28;20471;-23
2022/04/18 02:06:25;;;;;;;10.25;7.32;;;;;;;3.11;59.35;101534.53;5043217;28;20141;-23
2022/04/18 02:08:50;;;;;;;9.20;7.13;;;;;;;3.07;59.32;101536.13;5040094;28;20033;-23
2022/04/18 02:11:15;;;;;;;10.25;7.82;;;;;;;3.06;59.53;101530.84;5037408;28;20056;-23
2022/04/18 02:13:41;;;;;;;9.57;7.57;;;;;;;3.03;59.14;101531.63;5040979;28;20112;-23
2022/04/18 02:16:06;;;;;;;11.05;7.88;;;;;;;3.01;59.47;101522.00;5042102;28;20060;-23
2022/04/18 02:18:32;;;;;;;9.40;7.32;;;;;;;2.98;59.38;101519.28;5038524;28;20032;-23
2022/04/18 02:20:57;;;;;;;8.30;7.05;;;;;;;2.96;58.94;101521.81;5031773;28;20104;-23
2022/04/18 02:23:23;;;;;;;10.07;7.68;;;;;;;2.93;59.15;101509.56;5028663;28;20029;-23
2022/04/18 02:25:48;;;;;;;7.95;6.63;;;;;;;2.90;59.32;101506.84;5030349;28;20034;-23
2022/04/18 02:28:13;;;;;;;8.85;7.53;;;;;;;2.88;59.57;101508.53;5029211;28;20034;-23
2022/04/18 02:30:39;;;;;;;10.15;7.85;;;;;;;2.85;59.49;101510.13;5029560;28;20021;-23
2022/04/18 02:33:04;;;;;;;10.25;7.55;;;;;;;2.82;59.57;101498.78;5029677;28;20025;-23
2022/04/18 02:35:30;;;;;;;10.85;7.80;;;;;;;2.79;59.48;101497.75;5027645;28;20039;-23
2022/04/18 02:37:55;;;;;;;9.75;7.60;;;;;;;2.76;59.52;101493.34;5024730;28;20072;-23
2022/04/18 02:40:22;;;;;;;9.32;7.45;;;;;;;2.73;59.42;101485.41;5030313;28;20411;-23
2022/04/18 02:42:48;;;;;;;11.23;7.65;;;;;;;2.72;59.72;101485.34;5044094;28;20029;-23
2022/04/18 02:45:15;;;;;;;8.52;7.40;;;;;;;2.68;59.31;101480.03;5042864;28;20382;-23
2022/04/18 02:47:40;;;;;;;9.35;7.57;;;;;;;2.66;59.46;101478.19;5035768;28;20025;-23
2022/04/18 02:50:07;;;;;;;10.48;7.82;;;;;;;2.63;59.60;101468.53;5038977;28;20762;-23
2022/04/18 02:52:32;;;;;;;10.88;8.05;;;;;;;2.61;59.54;101471.94;5039781;28;20475;-23
2022/04/18 02:54:57;;;;;;;10.88;8.25;;;;;;;2.59;59.41;101470.97;5042313;28;20095;-23
2022/04/18 02:57:23;;;;;;;8.23;7.40;;;;;;;2.56;59.73;101461.34;5041742;28;20079;-23
2022/04/18 02:59:48;;;;;;;9.38;8.00;;;;;;;2.53;59.53;101461.22;5039819;28;20033;-23
2022/04/18 03:02:14;;;;;;;8.90;7.70;;;;;;;2.50;59.60;101462.00;5036212;28;20018;-23
2022/04/18 03:04:39;;;;;;;8.50;6.97;;;;;;;2.47;59.52;101458.41;5039466;28;20055;-23
2022/04/18 03:07:05;;;;;;;8.90;7.22;;;;;;;2.44;59.68;101457.44;5038226;28;20391;-23
2022/04/18 03:09:31;;;;;;;9.13;7.22;;;;;;;2.41;59.58;101446.91;5042952;28;20068;-23
2022/04/18 03:11:57;;;;;;;7.82;6.75;;;;;;;2.38;59.89;101457.25;5037390;28;20403;-23
2022/04/18 03:14:23;;;;;;;8.77;7.57;;;;;;;2.35;59.69;101454.53;5044269;28;20013;-23
2022/04/18 03:16:49;;;;;;;9.15;7.35;;;;;;;2.31;59.55;101435.28;5041841;28;20036;-23
2022/04/18 03:19:14;;;;;;;8.80;7.25;;;;;;;2.27;59.91;101445.53;5040503;28;20033;-23
2022/04/18 03:21:40;;;;;;;10.63;7.80;;;;;;;2.26;60.12;101433.31;5039212;28;20032;-23
2022/04/18 03:24:06;;;;;;;10.60;8.35;;;;;;;2.22;60.06;101439.25;5033563;28;20503;-23
2022/04/18 03:26:32;;;;;;;8.30;7.22;;;;;;;2.22;60.02;101428.84;5037614;28;20041;-23
2022/04/18 03:28:57;;;;;;;9.10;7.30;;;;;;;2.18;59.86;101428.75;5039333;28;20538;-23
2022/04/18 03:31:23;;;;;;;10.77;7.22;;;;;;;2.15;60.10;101427.72;5037117;28;20021;-23
2022/04/18 03:33:48;;;;;;;8.35;7.55;;;;;;;2.12;60.15;101428.50;5024919;28;20030;-23
2022/04/18 03:41:42;;;;;;;9.95;7.43;;;;;;;2.05;59.79;101426.50;5035783;28;20032;-23
2022/04/18 03:44:09;;;;;;;9.13;7.10;;;;;;;2.02;59.84;101426.38;5029801;28;20025;-23
2022/04/18 03:46:34;;;;;;;9.27;8.18;;;;;;;2.00;60.07;101430.66;5031141;28;20531;-23
2022/04/18 03:49:00;;;;;;;8.68;7.18;;;;;;;1.96;60.21;101432.22;5029309;28;20029;-23
2022/04/18 03:51:25;;;;;;;10.10;7.18;;;;;;;1.95;60.04;101419.16;5036023;28;20462;-23
2022/04/18 03:53:50;;;;;;;10.02;8.18;;;;;;;1.93;60.16;101429.50;5035713;28;20032;-23
2022/04/18 03:56:16;;;;;;;8.07;7.15;;;;;;;1.90;59.88;101426.81;5038657;28;20037;-23
2022/04/18 03:58:41;;;;;;;9.55;7.75;;;;;;;1.88;60.13;101425.84;5037844;28;20029;-23
2022/04/18 04:01:07;;;;;;;8.73;7.28;;;;;;;1.85;60.00;101429.22;5032063;28;20026;-23
2022/04/18 04:03:32;;;;;;;9.38;8.10;;;;;;;1.82;60.03;101425.59;5036122;28;20224;-23
2022/04/18 04:05:57;;;;;;;8.80;7.47;;;;;;;1.78;60.47;101424.59;5038116;28;20502;-23
2022/04/18 04:08:23;;;;;;;7.93;6.97;;;;;;;1.76;60.06;101419.34;5046486;28;20108;-23
2022/04/18 04:10:52;;;;;;;9.07;7.50;;;;;;;1.74;60.79;101414.91;5038287;28;20022;-23
2022/04/18 04:13:17;;;;;;;8.90;7.60;;;;;;;1.70;60.44;101413.88;5032497;28;20053;-23
2022/04/18 04:15:43;;;;;;;8.07;7.13;;;;;;;1.70;60.55;101416.47;5034402;28;20056;-23
2022/04/18 04:18:09;;;;;;;7.75;6.82;;;;;;;1.69;60.44;101416.41;5030146;28;20499;-23
2022/04/18 04:20:34;;;;;;;9.15;7.30;;;;;;;1.67;60.53;101413.78;5031755;28;20383;-23
2022/04/18 04:23:00;;;;;;;9.48;7.10;;;;;;;1.64;60.72;101417.13;5042354;28;20017;-23
2022/04/18 04:25:25;;;;;;;9.10;7.95;;;;;;;1.61;60.50;101419.63;5047795;28;20020;-23
2022/04/18 04:27:51;;;;;;;9.02;7.18;;;;;;;1.61;60.37;101419.63;5045310;28;20031;-23
2022/04/18 04:30:16;;;;;;;9.52;7.15;;;;;;;1.57;60.94;101415.09;5040956;28;20026;-23
2022/04/18 04:32:41;;;;;;;8.57;7.53;;;;;;;1.56;60.89;101415.06;5041824;28;20437;-23
2022/04/18 04:35:07;;;;;;;9.20;6.95;;;;;;;1.53;60.97;101421.00;5038116;28;20021;-23
2022/04/18 04:37:32;;;;;;;10.00;7.20;;;;;;;1.54;60.76;101420.22;5041639;28;20029;-23
2022/04/18 04:39:58;;;;;;;8.68;7.38;;;;;;;1.50;60.69;101413.13;5042693;28;20045;-23
2022/04/18 04:42:23;;;;;;;9.80;7.30;;;;;;;1.49;60.75;101421.72;5039999;28;20025;-23
2022/04/18 04:44:49;;;;;;;9.95;7.32;;;;;;;1.48;60.63;101417.34;5034177;28;20017;-23
2022/04/18 04:47:14;;;;;;;7.82;7.03;;;;;;;1.45;60.66;101412.91;5035067;28;20053;-23
2022/04/18 04:49:39;;;;;;;9.70;7.63;;;;;;;1.44;60.76;101418.06;5036598;28;20021;-23
2022/04/18 04:52:05;;;;;;;9.43;6.68;;;;;;;1.41;60.79;101414.50;5034464;28;20147;-23
2022/04/18 04:54:32;;;;;;;9.18;7.50;;;;;;;1.40;60.91;101417.06;5030981;28;20026;-23
2022/04/18 04:56:57;;;;;;;7.38;6.60;;;;;;;1.39;61.14;101416.16;5030660;28;20025;-23
2022/04/18 04:59:23;;;;;;;10.80;7.35;;;;;;;1.38;61.33;101411.78;5030238;28;20052;-23
2022/04/18 05:01:48;;;;;;;8.60;7.80;;;;;;;1.38;60.77;101424.78;5029429;28;20107;-23
2022/04/18 05:04:14;;;;;;;9.73;7.50;;;;;;;1.37;61.45;101415.19;5033808;28;20033;-23
2022/04/18 05:06:40;;;;;;;8.05;7.25;;;;;;;1.37;61.34;101415.19;5032576;28;20440;-23
2022/04/18 05:09:06;;;;;;;7.32;6.57;;;;;;;1.36;61.48;101420.31;5029250;28;20060;-23
2022/04/18 05:11:32;;;;;;;8.20;6.63;;;;;;;1.36;61.28;101418.63;5032312;28;20079;-23
2022/04/18 05:13:58;;;;;;;7.20;6.50;;;;;;;1.35;61.56;101414.25;5036234;28;20014;-23
2022/04/18 05:16:24;;;;;;;8.30;7.43;;;;;;;1.36;61.47;101413.44;5042640;28;20021;-23
2022/04/18 05:18:50;;;;;;;8.73;7.25;;;;;;;1.36;61.55;101413.44;5040209;28;20036;-23
2022/04/18 05:21:15;;;;;;;9.55;7.10;;;;;;;1.34;61.66;101412.50;5040700;28;20033;-23
2022/04/18 05:23:40;;;;;;;8.57;7.13;;;;;;;1.37;61.80;101414.31;5038142;28;20032;-23
2022/04/18 05:26:06;;;;;;;9.65;7.70;;;;;;;1.37;61.87;101415.19;5034772;28;20029;-23
2022/04/18 05:28:31;;;;;;;8.80;7.43;;;;;;;1.38;61.65;101423.88;5037289;28;20025;-23
2022/04/18 05:30:57;;;;;;;8.48;7.10;;;;;;;1.39;62.06;101418.75;5038766;28;20033;-23
2022/04/18 05:33:23;;;;;;;9.32;7.10;;;;;;;1.39;61.67;101416.16;5039108;28;20025;-23
2022/04/18 05:35:49;;;;;;;7.95;6.85;;;;;;;1.41;62.02;101421.44;5038435;28;20183;-23
2022/04/18 05:38:15;;;;;;;7.90;6.95;;;;;;;1.45;62.37;101425.03;5042006;28;20039;-23
2022/04/18 05:40:41;;;;;;;8.32;6.60;;;;;;;1.45;62.12;101422.41;5031069;28;20033;-23
2022/04/18 05:43:08;;;;;;;9.63;7.03;;;;;;;1.47;62.25;101425.97;5041229;28;20505;-23
2022/04/18 05:45:35;;;;;;;8.70;6.70;;;;;;;1.50;62.29;101431.31;5030390;28;20044;-23
2022/04/18 05:48:00;;;;;;;7.28;6.57;;;;;;;1.52;62.43;101427.03;5036178;28;20053;-23
2022/04/18 05:50:26;;;;;;;10.45;8.32;;;;;;;1.56;62.52;101426.34;5033731;28;20487;-23
2022/04/18 05:52:51;;;;;;;9.07;6.63;;;;;;;1.57;62.20;101428.09;5035384;28;20112;-23
2022/04/18 05:55:16;;;;;;;7.25;6.53;;;;;;;1.61;62.34;101434.34;5032130;28;20369;-23
2022/04/18 05:57:42;;;;;;;9.40;7.18;;;;;;;1.65;62.16;101426.72;5026778;28;20116;-23
2022/04/18 06:00:08;;;;;;;8.32;6.93;;;;;;;1.69;62.25;101432.03;5029439;28;20026;-23
2022/04/18 06:02:33;;;;;;;8.20;6.72;;;;;;;1.72;62.55;101433.06;5028348;28;20025;-23
2022/04/18 06:04:59;;;;;;;8.80;7.15;;;;;;;1.79;62.65;101439.38;5024901;28;20434;-23
2022/04/18 06:07:24;;;;;;;8.27;7.43;;;;;;;1.83;62.69;101436.06;5028499;28;20044;-23
2022/04/18 06:09:50;;;;;;;8.48;7.13;;;;;;;1.89;63.21;101436.31;5038327;28;20466;-23
2022/04/18 06:12:20;;;;;;;8.45;6.90;;;;;;;1.95;62.85;101429.56;5037754;28;20088;-23
2022/04/18 06:14:45;;;;;;;7.82;6.72;;;;;;;2.02;63.43;101431.56;5035696;28;20024;-23
2022/04/18 06:17:11;;;;;;;10.18;7.30;;;;;;;2.10;63.45;101437.97;5039812;28;20391;-23
2022/04/18 06:19:36;;;;;;;12.35;8.93;;;;;;;2.15;63.69;101431.22;5040811;28;20111;-23
2022/04/18 06:22:02;;;;;;;10.02;7.32;;;;;;;2.24;63.98;101441.09;5029899;28;20056;-23
2022/04/18 06:24:28;;;;;;;10.60;8.65;;;;;;;2.33;63.99;101445.75;5029274;28;21134;-23
2022/04/18 06:26:53;;;;;;;11.40;8.05;;;;;;;2.41;64.74;101436.50;5025296;28;20113;-23
2022/04/18 06:29:19;;;;;;;10.45;8.05;;;;;;;2.52;64.93;101438.63;5024591;28;20029;-23
2022/04/18 06:31:46;;;;;;;9.35;8.10;;;;;;;2.60;64.59;101434.56;5027266;28;20098;-23
2022/04/18 06:34:11;;;;;;;11.00;8.70;;;;;;;2.69;65.22;101427.09;5034877;28;20029;-23
2022/04/18 06:36:37;;;;;;;10.85;8.35;;;;;;;2.79;64.77;101428.31;5041320;28;20045;-23
2022/04/18 06:39:03;;;;;;;8.63;7.75;;;;;;;2.91;65.21;101427.88;5035123;28;20517;-23
2022/04/18 06:41:28;;;;;;;9.52;7.57;;;;;;;3.02;64.61;101436.03;5037902;28;20021;-23
2022/04/18 06:43:53;;;;;;;9.70;8.27;;;;;;;3.13;64.71;101425.97;5035556;28;20546;-23
2022/04/18 06:46:19;;;;;;;8.80;7.82;;;;;;;3.25;64.46;101433.31;5041577;28;20039;-23
2022/04/18 06:48:45;;;;;;;9.32;8.38;;;;;;;3.36;64.19;101431.06;5018785;28;20029;-23
2022/04/18 06:51:10;;;;;;;11.05;8.55;;;;;;;3.49;63.85;101431.47;5040433;28;20055;-23
2022/04/18 06:53:36;;;;;;;10.05;8.45;;;;;;;3.59;64.25;101434.44;5040544;28;20021;-23
2022/04/18 06:58:45;;;;;;;9.70;8.43;;;;;;;3.86;63.83;101432.63;5035151;28;20078;-23
2022/04/18 07:01:10;;;;;;;9.30;7.97;;;;;;;3.96;63.87;101429.47;5043328;28;20032;-23
2022/04/18 07:03:36;;;;;;;12.88;8.88;;;;;;;4.10;64.03;101427.28;5041171;28;20075;-23
2022/04/18 07:06:02;;;;;;;10.02;8.98;;;;;;;4.23;63.66;101411.94;5034298;28;20025;-23
2022/04/18 07:08:27;;;;;;;9.80;8.80;;;;;;;4.37;63.70;101425.44;5030622;28;20025;-23
2022/04/18 07:10:52;;;;;;;11.75;8.77;;;;;;;4.51;64.07;101420.59;5035868;28;20048;-23
2022/04/18 07:13:18;;;;;;;8.85;7.95;;;;;;;4.64;64.02;101418.31;5036188;28;20026;-23
2022/04/18 07:15:43;;;;;;;11.15;9.52;;;;;;;4.78;63.71;101419.59;5044061;28;20043;-23
2022/04/18 07:18:09;;;;;;;9.40;8.32;;;;;;;4.92;63.06;101419.94;5039602;28;20124;-23
2022/04/18 07:20:34;;;;;;;10.00;8.13;;;;;;;5.08;63.84;101426.47;5037029;28;20021;-24
2022/04/18 07:23:00;;;;;;;12.02;9.30;;;;;;;5.24;63.92;101421.63;5032506;28;20574;-24
2022/04/18 07:25:26;;;;;;;9.93;8.20;;;;;;;5.35;64.29;101414.94;5031720;28;20087;-24
2022/04/18 07:27:52;;;;;;;10.35;8.63;;;;;;;5.54;64.80;101419.72;5030671;28;20442;-24
2022/04/18 07:30:17;;;;;;;9.35;7.85;;;;;;;5.68;65.50;101414.78;5032366;28;20483;-24
2022/04/18 07:32:44;;;;;;;11.73;8.50;;;;;;;5.80;65.30;101414.22;5044975;28;20070;-23
2022/04/18 07:35:11;;;;;;;11.27;8.70;;;;;;;5.95;64.47;101413.66;5037713;28;20026;-23
2022/04/18 07:37:36;;;;;;;9.93;8.32;;;;;;;6.11;64.45;101421.00;5043024;28;20047;-23
2022/04/18 07:40:03;;;;;;;12.60;9.50;;;;;;;6.24;63.67;101413.44;5036982;28;20025;-23
2022/04/18 07:42:28;;;;;;;10.25;9.07;;;;;;;6.39;63.70;101412.84;5040540;28;20056;-23
2022/04/18 07:44:54;;;;;;;11.15;8.02;;;;;;;6.54;64.46;101413.16;5034282;28;20039;-23
2022/04/18 07:47:19;;;;;;;10.38;8.20;;;;;;;6.72;65.98;101414.38;5032665;28;20025;-23
2022/04/18 07:49:45;;;;;;;11.48;8.90;;;;;;;6.83;63.58;101409.31;5037633;28;20426;-23
2022/04/18 07:52:12;;;;;;;10.25;8.50;;;;;;;6.96;63.74;101417.41;5034847;28;20029;-24
2022/04/18 07:54:38;;;;;;;10.82;7.85;;;;;;;7.12;62.75;101411.59;5028666;28;20049;-24
2022/04/18 07:57:04;;;;;;;10.95;7.82;;;;;;;7.25;62.06;101403.91;5028183;28;20572;-24
2022/04/18 07:59:30;;;;;;;10.98;8.48;;;;;;;7.41;64.01;101405.91;5032904;28;20029;-24
2022/04/18 08:01:56;;;;;;;10.43;8.32;;;;;;;7.57;64.15;101407.03;5030245;28;20068;-24
2022/04/18 08:04:21;;;;;;;11.68;8.20;;;;;;;7.69;62.91;101414.22;5027322;28;20041;-23
2022/04/18 08:06:47;;;;;;;10.18;7.88;;;;;;;7.89;64.36;101412.75;5026786;28;20053;-23
2022/04/18 08:09:12;;;;;;;9.35;8.07;;;;;;;8.04;64.98;101412.94;5028000;28;20518;-23
2022/04/18 08:11:37;;;;;;;11.07;8.40;;;;;;;8.17;62.83;101410.50;5026535;28;20056;-24
2022/04/18 08:14:03;;;;;;;10.30;8.00;;;;;;;8.30;63.33;101407.16;5031248;28;20211;-24
2022/04/18 08:16:28;;;;;;;13.77;9.82;;;;;;;8.48;64.47;101411.72;5045783;28;20062;-24
2022/04/18 08:18:55;;;;;;;11.15;8.80;;;;;;;8.66;64.26;101414.59;5042814;28;20426;-24
2022/04/18 08:21:21;;;;;;;11.60;9.18;;;;;;;8.79;63.47;101405.97;5030584;28;20079;-24
2022/04/18 08:23:48;;;;;;;14.25;9.15;;;;;;;8.96;63.34;101399.97;5029198;28;20475;-24
2022/04/18 08:26:14;;;;;;;11.75;9.30;;;;;;;9.15;65.73;101403.66;5030476;28;20499;-24
2022/04/18 08:28:40;;;;;;;10.57;8.00;;;;;;;9.31;64.65;101409.91;5031252;28;20044;-24
2022/04/18 08:31:07;;;;;;;10.38;8.95;;;;;;;9.47;63.93;101399.53;5045589;28;20040;-24
2022/04/18 08:33:33;;;;;;;11.73;8.35;;;;;;;9.63;61.75;101400.50;5030880;28;20025;-24
2022/04/18 08:35:59;;;;;;;9.98;7.65;;;;;;;9.81;63.66;101399.75;5030115;28;20534;-24
2022/04/18 08:38:26;;;;;;;11.02;8.50;;;;;;;10.00;65.06;101405.09;5030231;28;20044;-24
2022/04/18 08:40:55;;;;;;;11.27;8.73;;;;;;;10.14;64.03;101398.13;5035499;28;20033;-24
2022/04/18 08:43:20;;;;;;;11.20;8.07;;;;;;;10.30;63.54;101392.94;5046702;28;20447;-24
2022/04/18 08:45:47;;;;;;;9.60;7.88;;;;;;;10.49;65.59;101400.94;5043553;28;20031;-24
2022/04/18 08:53:42;;;;;;;12.57;8.65;;;;;;;10.91;59.67;101386.06;5041788;28;20059;-24
2022/04/18 08:56:08;;;;;;;10.65;8.63;;;;;;;11.10;61.29;101386.06;5043472;28;20036;-24
2022/04/18 08:58:34;;;;;;;10.30;7.85;;;;;;;11.26;60.25;101383.44;5048060;28;20108;-24
2022/04/18 09:01:00;;;;;;;12.98;8.23;;;;;;;11.40;60.52;101381.66;5040956;28;20232;-24
2022/04/18 09:03:26;;;;;;;9.25;8.27;;;;;;;11.52;59.11;101378.13;5031258;28;20021;-24
2022/04/18 09:06:10;;;;;;;10.80;8.30;;;;;;;11.72;60.95;101368.38;5031277;28;20056;-24
2022/04/18 09:08:46;;;;;;;9.52;8.10;;;;;;;11.86;59.83;101365.69;5029694;28;20079;-24
2022/04/18 09:11:33;;;;;;;9.52;8.23;;;;;;;12.03;58.38;101373.56;5030602;28;20025;-24
2022/04/18 09:14:10;;;;;;;10.50;8.07;;;;;;;12.19;61.39;101367.38;5026052;28;20034;-24
2022/04/18 09:16:36;;;;;;;13.27;9.10;;;;;;;12.37;63.36;101362.88;5030464;28;20541;-24
2022/04/18 09:19:11;;;;;;;10.20;7.20;;;;;;;12.57;63.31;101369.81;5026230;28;20108;-24
2022/04/18 09:21:54;;;;;;;9.73;8.38;;;;;;;12.66;57.74;101359.19;5030369;28;20033;-24
2022/04/18 09:24:34;;;;;;;8.68;7.78;;;;;;;12.84;59.10;101362.59;5042100;28;20029;-24
2022/04/18 09:27:06;;;;;;;10.32;8.23;;;;;;;13.00;58.07;101362.47;5042939;28;20021;-24
2022/04/18 09:29:33;;;;;;;9.27;7.50;;;;;;;13.14;57.85;101355.25;5041907;28;20025;-24
2022/04/18 09:31:59;;;;;;;9.95;8.80;;;;;;;13.28;59.02;101349.84;5039295;28;20064;-24
2022/04/18 09:34:24;;;;;;;9.15;7.40;;;;;;;13.39;56.40;101349.75;5049155;28;20147;-24
2022/04/18 09:37:12;;;;;;;9.65;8.63;;;;;;;13.53;56.22;101351.38;5028947;28;20025;-24
2022/04/18 09:39:43;;;;;;;9.35;7.95;;;;;;;13.61;53.77;101349.56;5029035;28;20028;-24
2022/04/18 09:42:14;;;;;;;;;;;;;;;13.71;54.97;101343.25;5039955;28;20018;-25
2022/04/18 09:44:39;;;;;;;11.02;7.03;;;;;;;13.86;54.79;101333.34;5043116;28;19916;-24
2022/04/18 09:47:05;;;;;;;7.38;6.45;;;;;;;13.97;55.51;101335.84;5045021;28;20082;-25
2022/04/18 09:49:37;;;;;;;7.60;6.35;;;;;;;14.12;54.55;101329.50;5046719;28;20033;-24
2022/04/18 09:52:06;;;;;;;7.25;6.55;;;;;;;14.22;54.20;101324.94;5036679;28;20060;-25
2022/04/18 09:54:32;;;;;;;7.95;6.00;;;;;;;14.31;52.58;101323.94;5030216;28;20075;-25
2022/04/18 09:57:07;;;;;;;8.35;7.00;;;;;;;14.43;52.19;101325.50;5030650;28;20021;-25
2022/04/18 09:59:33;;;;;;;9.00;6.75;;;;;;;14.53;52.58;101313.88;5029390;28;20029;-25
2022/04/18 10:01:59;;;;;;;10.02;7.05;;;;;;;14.63;51.67;101309.28;5029674;28;20024;-24
2022/04/18 10:04:26;;;;;;;8.10;6.65;;;;;;;14.75;51.95;101302.91;5030801;28;20024;-24
2022/04/18 10:06:58;;;;;;;8.95;6.32;;;;;;;14.80;51.65;101310.84;5028274;28;20065;-25
2022/04/18 10:09:24;;;;;;;7.57;6.15;;;;;;;14.93;51.17;101301.75;5026367;28;20574;-24
2022/04/18 10:11:51;;;;;;;7.50;6.13;;;;;;;15.01;50.30;101309.59;5028427;28;20352;-25
2022/04/18 10:14:16;;;;;;;6.72;5.82;;;;;;;15.09;50.71;101306.78;5029001;28;20022;-25
2022/04/18 10:16:42;;;;;;;7.00;5.85;;;;;;;15.19;50.13;101302.19;5029867;28;20028;-25
2022/04/18 10:19:37;;;;;;;6.10;5.50;;;;;;;15.31;50.29;101291.31;5029598;28;20479;-25
2022/04/18 10:22:40;;;;;;;6.90;6.20;;;;;;;15.40;49.34;101295.59;5019382;28;20037;-25
2022/04/18 10:25:06;;;;;;;9.07;6.22;;;;;;;15.47;49.18;101286.59;5029854;28;20396;-25
2022/04/18 10:28:22;;;;;;;6.63;5.07;;;;;;;15.59;48.59;101281.94;5031935;28;20109;-24
2022/04/18 10:30:52;;;;;;;5.50;4.65;;;;;;;15.69;48.61;101283.50;4995823;28;20038;-25
2022/04/18 10:33:18;;;;;;;7.80;5.25;;;;;;;15.77;48.55;101273.56;5028394;28;20112;-25
2022/04/18 10:35:55;;;;;;;6.55;5.70;;;;;;;15.86;48.38;101269.84;5029025;28;20076;-25
2022/04/18 10:38:25;;;;;;;8.25;5.78;;;;;;;15.90;48.15;101267.97;5030206;28;20033;-24
2022/04/18 10:40:51;;;;;;;6.88;4.93;;;;;;;15.99;47.55;101266.94;5028722;28;20507;-25
2022/04/18 10:43:16;;;;;;;6.10;4.57;;;;;;;16.05;47.81;101263.28;5027073;28;20033;-24
2022/04/18 10:45:41;;;;;;;5.18;4.68;;;;;;;16.13;47.94;101263.97;5029546;28;20033;-25
2022/04/18 10:48:11;;;;;;;6.15;5.10;;;;;;;16.20;47.16;101268.25;5027887;28;20029;-25
2022/04/18 10:50:37;;;;;;;6.57;4.43;;;;;;;16.27;47.35;101261.88;5022779;28;20018;-22
2022/04/18 10:53:13;;;;;;;6.28;4.55;;;;;;;16.38;47.25;101255.41;5035490;28;20116;-25
2022/04/18 10:55:41;;;;;;;4.88;4.45;;;;;;;16.47;47.55;101246.34;5030095;28;20020;-25
2022/04/18 10:58:14;;;;;;;4.90;4.47;;;;;;;16.48;46.61;101238.31;5026499;28;20050;-25
2022/04/18 11:00:59;;;;;;;5.22;4.45;;;;;;;16.57;46.58;101252.31;5030708;28;20095;-25
2022/04/18 11:03:43;;;;;;;5.22;4.03;;;;;;;16.68;46.50;101239.59;5036538;28;20033;-25
2022/04/18 11:06:15;;;;;;;5.45;4.10;;;;;;;16.73;46.41;101237.69;5039323;28;20025;-25
2022/04/18 11:08:41;;;;;;;5.43;4.22;;;;;;;16.79;45.79;101237.53;5040387;28;20063;-25
2022/04/18 11:11:17;;;;;;;5.50;4.10;;;;;;;16.86;46.03;101232.91;5035160;28;20480;-25
2022/04/18 11:13:43;;;;;;;6.82;4.05;;;;;;;16.92;45.16;101227.41;5030356;28;20033;-25
2022/04/18 11:16:49;;;;;;;5.18;3.92;;;;;;;16.99;44.93;101236.13;5027019;28;20029;-25
2022/04/18 11:19:14;;;;;;;4.00;3.60;;;;;;;17.06;45.72;101234.19;5028467;28;20115;-25
2022/04/18 11:21:59;;;;;;;4.65;3.60;;;;;;;17.14;45.52;101236.66;5030554;28;20479;-24
2022/04/18 11:24:37;;;;;;;7.68;3.63;;;;;;;17.18;44.49;101228.50;5027102;28;20029;-25
2022/04/18 11:27:15;;;;;;;3.78;3.10;;;;;;;17.24;44.65;101222.13;5023722;28;20018;-24
2022/04/18 11:29:50;;;;;;;4.47;3.40;;;;;;;17.34;44.48;101227.22;5027107;28;20021;-24
2022/04/18 11:32:20;;;;;;;4.25;3.85;;;;;;;17.41;43.89;101228.78;5039413;28;20423;-24
2022/04/18 11:34:47;;;;;;;4.65;3.00;;;;;;;17.46;43.91;101220.63;5046353;28;20028;-24
2022/04/18 11:37:31;;;;;;;3.25;2.95;;;;;;;17.52;42.96;101220.47;5047876;28;20108;-24
2022/04/18 11:40:08;;;;;;;3.53;3.22;;;;;;;17.56;42.98;101217.66;5047920;28;20475;-24
2022/04/18 11:42:34;;;;;;;3.38;3.08;;;;;;;17.60;42.88;101217.56;5031725;28;20288;-24
2022/04/18 11:45:06;;;;;;;4.90;3.20;;;;;;;17.68;42.93;101211.06;5030447;28;20022;-24
2022/04/18 11:47:40;;;;;;;2.80;2.60;;;;;;;17.73;43.68;101215.38;5031439;28;20063;-24
2022/04/18 11:50:07;;;;;;;4.07;2.83;;;;;;;17.79;43.07;101210.75;5031684;28;20068;-24